Time;durP1;ratioP1;P1;durP2;ratioP2;P2;SDS_P1;SDS_P2;PMS_P1;PMS_P2;Temp;Humidity;BMP_temperature;BMP_pressure;BME280_temperature;BME280_humidity;BME280_pressure;Samples;Min_cycle;Max_cycle;Signal;HPM_P1;HPM_P2
2024/04/14 00:00:44;;;;;;;14.03;7.30;;;14.50;99.90;;;;;;5325777;26;20000;-64
2024/04/14 00:03:12;;;;;;;13.65;7.50;;;14.50;99.90;;;;;;5318640;26;20248;-65
2024/04/14 00:05:38;;;;;;;16.90;8.10;;;14.50;99.90;;;;;;5318082;26;20001;-64
2024/04/14 00:08:04;;;;;;;14.63;8.20;;;14.50;99.90;;;;;;5312821;26;20016;-64
2024/04/14 00:10:29;;;;;;;15.57;6.90;;;14.40;99.90;;;;;;5316293;26;20448;-64
2024/04/14 00:12:55;;;;;;;14.20;7.37;;;14.40;99.90;;;;;;5316511;26;20005;-65
2024/04/14 00:15:20;;;;;;;15.63;7.57;;;14.30;99.90;;;;;;5316925;26;20030;-64
2024/04/14 00:17:46;;;;;;;13.03;7.00;;;14.30;99.90;;;;;;5333848;26;20006;-65
2024/04/14 00:20:12;;;;;;;15.17;7.23;;;14.30;99.90;;;;;;5320240;26;20001;-65
2024/04/14 00:22:38;;;;;;;14.73;7.73;;;14.40;99.90;;;;;;5309853;26;20228;-64
2024/04/14 00:25:04;;;;;;;20.15;7.72;;;14.30;99.90;;;;;;5324051;26;20223;-64
2024/04/14 00:27:30;;;;;;;13.63;7.72;;;14.40;99.90;;;;;;5319731;26;20024;-65
2024/04/14 00:29:56;;;;;;;14.27;7.25;;;14.40;99.90;;;;;;5323112;26;20020;-65
2024/04/14 00:32:21;;;;;;;18.30;7.90;;;14.40;99.90;;;;;;5322848;26;20001;-65
2024/04/14 00:34:51;;;;;;;15.70;7.73;;;14.40;99.90;;;;;;5319389;26;19997;-65
2024/04/14 00:37:16;;;;;;;13.90;7.45;;;14.30;99.90;;;;;;5309981;26;20060;-65
2024/04/14 00:39:42;;;;;;;16.90;7.63;;;14.30;99.90;;;;;;5319216;26;19998;-65
2024/04/14 00:42:07;;;;;;;13.00;7.53;;;14.30;99.90;;;;;;5322797;26;20009;-65
2024/04/14 00:44:34;;;;;;;11.33;7.50;;;14.30;99.90;;;;;;5320504;26;20025;-65
2024/04/14 00:46:59;;;;;;;16.45;8.00;;;14.30;99.90;;;;;;5327904;26;20013;-65
2024/04/14 00:49:25;;;;;;;15.13;7.18;;;14.20;99.90;;;;;;5321494;26;20004;-65
2024/04/14 00:51:52;;;;;;;13.93;7.83;;;14.10;99.90;;;;;;5317858;26;20005;-64
2024/04/14 00:54:19;;;;;;;13.18;7.55;;;14.10;99.90;;;;;;5317710;26;20334;-64
2024/04/14 00:56:46;;;;;;;12.90;6.60;;;14.00;99.90;;;;;;5318699;26;20008;-64
2024/04/14 00:59:13;;;;;;;19.25;7.15;;;14.10;99.90;;;;;;5314847;26;20075;-65
2024/04/14 01:01:38;;;;;;;15.05;9.20;;;14.00;99.90;;;;;;5319622;26;20001;-64
2024/04/14 01:04:05;;;;;;;14.20;7.50;;;14.00;99.90;;;;;;5338024;26;20001;-65
2024/04/14 01:06:31;;;;;;;18.23;7.50;;;13.90;99.90;;;;;;5316746;26;20004;-64
2024/04/14 01:08:57;;;;;;;12.40;7.28;;;13.90;99.90;;;;;;5319013;26;20002;-64
2024/04/14 01:11:23;;;;;;;13.33;7.27;;;13.90;99.90;;;;;;5332898;26;20398;-64
2024/04/14 01:13:49;;;;;;;13.77;6.82;;;13.90;99.90;;;;;;5311405;26;20213;-64
2024/04/14 01:16:15;;;;;;;9.80;6.10;;;13.90;99.90;;;;;;5325899;26;20083;-64
2024/04/14 01:18:40;;;;;;;11.65;6.88;;;13.90;99.90;;;;;;5312929;26;20083;-64
2024/04/14 01:21:06;;;;;;;17.97;7.97;;;13.80;99.90;;;;;;5315674;26;19997;-64
2024/04/14 01:23:33;;;;;;;14.73;7.70;;;13.80;99.90;;;;;;5319732;26;20598;-64
2024/04/14 01:25:58;;;;;;;14.57;7.20;;;13.80;99.90;;;;;;5332987;26;19996;-64
2024/04/14 01:28:24;;;;;;;17.03;7.97;;;13.80;99.90;;;;;;5339428;26;20019;-64
2024/04/14 01:30:50;;;;;;;16.83;8.30;;;13.80;99.90;;;;;;5322218;26;20004;-64
2024/04/14 01:33:15;;;;;;;13.50;6.73;;;13.70;99.90;;;;;;5315633;26;20331;-64
2024/04/14 01:35:41;;;;;;;15.27;7.83;;;13.60;99.90;;;;;;5311155;26;19998;-64
2024/04/14 01:38:07;;;;;;;12.02;6.90;;;13.70;99.90;;;;;;5318296;26;20021;-64
2024/04/14 01:40:33;;;;;;;17.83;7.23;;;13.70;99.90;;;;;;5318010;26;20001;-65
2024/04/14 01:42:58;;;;;;;12.83;6.27;;;13.70;99.90;;;;;;5322299;26;20016;-63
2024/04/14 01:45:24;;;;;;;10.77;6.07;;;13.60;99.90;;;;;;5317376;26;20078;-64
2024/04/14 01:47:50;;;;;;;11.70;6.43;;;13.60;99.90;;;;;;5319761;26;20013;-64
2024/04/14 01:50:16;;;;;;;15.03;6.37;;;13.60;99.90;;;;;;5351211;26;20005;-64
2024/04/14 01:52:41;;;;;;;11.43;7.13;;;13.60;99.90;;;;;;5323028;26;20272;-63
2024/04/14 01:55:07;;;;;;;28.07;7.67;;;13.60;99.90;;;;;;5317943;26;19997;-64
2024/04/14 01:57:34;;;;;;;20.00;6.50;;;13.60;99.90;;;;;;5329150;26;20052;-64
2024/04/14 01:59:59;;;;;;;;;;;13.50;99.90;;;;;;5321287;26;19997;-64
2024/04/14 02:02:25;;;;;;;14.27;6.50;;;13.50;99.90;;;;;;5315259;26;19938;-64
2024/04/14 02:04:52;;;;;;;11.20;6.70;;;13.40;99.90;;;;;;5332322;26;20012;-64
2024/04/14 02:07:18;;;;;;;13.23;6.65;;;13.40;99.90;;;;;;5318827;26;20005;-64
2024/04/14 02:09:44;;;;;;;21.05;7.45;;;13.20;99.90;;;;;;5315552;26;20483;-64
2024/04/14 02:12:11;;;;;;;20.48;7.15;;;13.20;99.90;;;;;;5321044;26;20011;-64
2024/04/14 02:14:36;;;;;;;13.32;6.80;;;13.30;99.90;;;;;;5323527;26;19997;-64
2024/04/14 02:17:02;;;;;;;10.13;7.53;;;13.20;99.90;;;;;;5325473;26;20471;-63
2024/04/14 02:19:28;;;;;;;12.48;7.65;;;13.30;99.90;;;;;;5361909;26;20012;-63
2024/04/14 02:21:53;;;;;;;11.53;6.40;;;13.30;99.90;;;;;;5333151;26;20401;-64
2024/04/14 02:24:19;;;;;;;23.57;7.20;;;13.30;99.90;;;;;;5320864;26;20044;-63
2024/04/14 02:26:45;;;;;;;14.33;6.40;;;13.20;99.90;;;;;;5322162;26;20853;-63
2024/04/14 02:29:10;;;;;;;6.93;5.50;;;13.10;99.90;;;;;;5323610;26;19993;-63
2024/04/14 02:31:36;;;;;;;14.20;6.30;;;13.10;99.90;;;;;;5330935;26;20001;-63
2024/04/14 02:34:01;;;;;;;15.83;7.17;;;12.90;99.90;;;;;;5318258;26;20853;-64
2024/04/14 02:36:28;;;;;;;16.77;7.67;;;13.00;99.90;;;;;;5325020;26;20558;-63
2024/04/14 02:38:55;;;;;;;11.55;6.63;;;13.00;99.90;;;;;;5323185;26;20007;-63
2024/04/14 02:41:21;;;;;;;13.02;6.32;;;13.00;99.90;;;;;;5318968;26;20466;-64
2024/04/14 02:43:46;;;;;;;16.20;6.57;;;12.90;99.90;;;;;;5319318;26;20015;-63
2024/04/14 02:46:12;;;;;;;11.10;6.07;;;12.90;99.90;;;;;;5328060;26;20033;-63
2024/04/14 02:48:38;;;;;;;18.50;6.90;;;12.90;99.90;;;;;;5322950;26;20004;-64
2024/04/14 02:51:05;;;;;;;9.35;6.45;;;12.90;99.90;;;;;;5315515;26;20020;-63
2024/04/14 02:53:30;;;;;;;15.55;6.97;;;12.90;99.90;;;;;;5324553;26;20079;-64
2024/04/14 02:55:56;;;;;;;14.75;6.32;;;12.80;99.90;;;;;;5328727;26;20753;-64
2024/04/14 02:58:22;;;;;;;15.18;5.93;;;12.80;99.90;;;;;;5320407;26;20486;-63
2024/04/14 03:00:57;;;;;;;14.57;6.37;;;12.70;99.90;;;;;;5322359;26;20466;-63
2024/04/14 03:03:23;;;;;;;11.63;6.05;;;12.70;99.90;;;;;;5319013;26;20009;-64
2024/04/14 03:06:01;;;;;;;12.50;6.27;;;12.60;99.90;;;;;;5326660;26;20001;-64
2024/04/14 03:08:26;;;;;;;15.02;7.03;;;12.60;99.90;;;;;;5320605;26;19997;-64
2024/04/14 03:10:59;;;;;;;19.30;7.03;;;12.50;99.90;;;;;;5314912;26;20023;-63
2024/04/14 03:13:24;;;;;;;10.38;6.40;;;12.40;99.90;;;;;;5317231;26;19997;-64
2024/04/14 03:15:51;;;;;;;13.50;7.17;;;12.50;99.90;;;;;;5314152;26;20016;-64
2024/04/14 03:18:17;;;;;;;13.15;6.80;;;12.50;99.90;;;;;;5323433;26;20012;-63
2024/04/14 03:20:54;;;;;;;14.17;6.60;;;12.40;99.90;;;;;;5306038;26;20001;-64
2024/04/14 03:23:20;;;;;;;;;;;12.40;99.90;;;;;;5316303;26;20009;-63
2024/04/14 03:25:46;;;;;;;10.98;6.55;;;12.40;99.90;;;;;;5342927;26;20011;-64
2024/04/14 03:28:11;;;;;;;17.53;6.53;;;12.50;99.90;;;;;;5331863;26;20016;-64
2024/04/14 03:30:37;;;;;;;11.80;6.80;;;12.50;99.90;;;;;;5320096;26;20015;-64
2024/04/14 03:33:02;;;;;;;12.77;7.30;;;12.60;99.90;;;;;;5318885;26;20323;-63
2024/04/14 03:35:28;;;;;;;10.73;6.50;;;12.60;99.90;;;;;;5327566;26;19996;-63
2024/04/14 03:37:53;;;;;;;19.57;5.90;;;12.40;99.90;;;;;;5326931;26;20012;-64
2024/04/14 03:40:19;;;;;;;15.70;6.60;;;12.30;99.90;;;;;;5329073;26;20427;-64
2024/04/14 03:42:45;;;;;;;13.43;6.47;;;12.20;99.90;;;;;;5319602;26;20037;-63
2024/04/14 03:45:11;;;;;;;17.65;6.03;;;12.30;99.90;;;;;;5328014;26;20002;-65
2024/04/14 03:47:37;;;;;;;11.07;6.13;;;12.30;99.90;;;;;;5318816;26;20034;-63
2024/04/14 03:50:03;;;;;;;13.00;5.97;;;12.40;99.90;;;;;;5321126;26;20008;-63
2024/04/14 03:52:29;;;;;;;8.90;5.30;;;12.30;99.90;;;;;;5322260;26;20015;-63
2024/04/14 03:54:54;;;;;;;11.53;5.93;;;12.30;99.90;;;;;;5322411;26;20005;-63
2024/04/14 03:57:20;;;;;;;12.00;6.30;;;12.30;99.90;;;;;;5326055;26;20446;-64
2024/04/14 03:59:45;;;;;;;9.40;5.87;;;12.30;99.90;;;;;;5314768;26;19997;-63
2024/04/14 04:02:11;;;;;;;15.63;7.63;;;12.30;99.90;;;;;;5328866;26;20005;-63
2024/04/14 04:04:37;;;;;;;16.20;6.67;;;12.30;99.90;;;;;;5318356;26;20010;-65
2024/04/14 04:07:03;;;;;;;11.02;5.57;;;12.20;99.90;;;;;;5318494;26;20329;-63
2024/04/14 04:09:29;;;;;;;15.27;6.38;;;12.20;99.90;;;;;;5318645;26;20096;-63
2024/04/14 04:11:54;;;;;;;11.37;5.80;;;12.20;99.90;;;;;;5321452;26;20010;-64
2024/04/14 04:14:21;;;;;;;10.77;6.00;;;12.20;99.90;;;;;;5329655;26;19996;-64
2024/04/14 04:16:49;;;;;;;10.63;5.93;;;12.10;99.90;;;;;;5313409;26;20438;-65
2024/04/14 04:19:15;;;;;;;12.57;5.97;;;12.10;99.90;;;;;;5313636;26;19997;-64
2024/04/14 04:21:41;;;;;;;14.63;5.97;;;12.10;99.90;;;;;;5323690;26;20517;-64
2024/04/14 04:24:07;;;;;;;10.77;6.33;;;12.10;99.90;;;;;;5325203;26;20235;-64
2024/04/14 04:26:33;;;;;;;12.70;5.82;;;12.20;99.90;;;;;;5320172;26;20562;-63
2024/04/14 04:28:59;;;;;;;11.07;5.73;;;12.10;99.90;;;;;;5334258;26;20020;-64
2024/04/14 04:31:24;;;;;;;19.27;6.90;;;12.10;99.90;;;;;;5310454;26;20006;-64
2024/04/14 04:33:50;;;;;;;12.70;6.30;;;12.10;99.90;;;;;;5314661;26;20479;-63
2024/04/14 04:36:17;;;;;;;10.97;6.17;;;12.10;99.90;;;;;;5328741;26;20019;-63
2024/04/14 04:38:43;;;;;;;14.82;6.55;;;12.00;99.90;;;;;;5319966;26;20372;-64
2024/04/14 04:41:10;;;;;;;11.30;6.38;;;11.90;99.90;;;;;;5322818;26;20068;-64
2024/04/14 04:43:38;;;;;;;10.27;6.30;;;11.90;99.90;;;;;;5327066;26;20005;-64
2024/04/14 04:46:03;;;;;;;10.32;5.60;;;12.00;99.90;;;;;;5324927;26;20009;-63
2024/04/14 04:48:29;;;;;;;11.33;6.33;;;11.90;99.90;;;;;;5309532;26;20007;-65
2024/04/14 04:50:55;;;;;;;11.70;6.30;;;11.80;99.90;;;;;;5320857;26;20331;-63
2024/04/14 04:53:21;;;;;;;10.95;6.35;;;11.80;99.90;;;;;;5319221;26;20516;-64
2024/04/14 04:55:47;;;;;;;14.93;6.18;;;11.80;99.90;;;;;;5325973;26;20029;-63
2024/04/14 04:58:14;;;;;;;12.50;6.40;;;11.80;99.90;;;;;;5326845;26;20421;-64
2024/04/14 05:00:40;;;;;;;12.38;7.30;;;11.80;99.90;;;;;;5331453;26;20248;-63
2024/04/14 05:03:06;;;;;;;11.70;5.95;;;11.80;99.90;;;;;;5310310;26;20012;-64
2024/04/14 05:05:32;;;;;;;16.50;6.30;;;11.80;99.90;;;;;;5301238;26;19998;-63
2024/04/14 05:07:58;;;;;;;14.90;6.43;;;11.70;99.90;;;;;;5320248;26;20037;-65
2024/04/14 05:10:23;;;;;;;10.52;5.45;;;11.70;99.90;;;;;;5362641;26;20001;-63
2024/04/14 05:12:49;;;;;;;8.43;5.67;;;11.70;99.90;;;;;;5323121;26;20001;-64
2024/04/14 05:15:15;;;;;;;11.23;6.23;;;11.80;99.90;;;;;;5346024;26;20001;-63
2024/04/14 05:17:40;;;;;;;9.43;5.60;;;11.80;99.90;;;;;;5331587;26;20315;-64
2024/04/14 05:20:07;;;;;;;17.13;6.87;;;11.70;99.90;;;;;;5319551;26;20010;-64
2024/04/14 05:22:32;;;;;;;11.35;5.45;;;11.80;99.90;;;;;;5309601;26;20006;-63
2024/04/14 05:24:58;;;;;;;10.20;5.57;;;11.90;99.90;;;;;;5319782;26;20045;-63
2024/04/14 05:27:23;;;;;;;13.83;5.73;;;11.80;99.90;;;;;;5318435;26;20940;-64
2024/04/14 05:29:49;;;;;;;18.73;6.60;;;11.80;99.90;;;;;;5318990;26;20009;-64
2024/04/14 05:32:15;;;;;;;12.27;5.93;;;12.10;99.90;;;;;;5318647;26;20037;-62
2024/04/14 05:34:42;;;;;;;10.90;5.90;;;12.20;99.90;;;;;;5323192;26;20020;-63
2024/04/14 05:37:08;;;;;;;14.07;6.35;;;12.20;99.90;;;;;;5321204;26;20048;-64
2024/04/14 05:39:36;;;;;;;9.63;5.50;;;12.10;99.90;;;;;;5323065;26;20013;-63
2024/04/14 05:42:02;;;;;;;13.15;5.50;;;12.10;99.90;;;;;;5322991;26;20516;-63
2024/04/14 05:44:28;;;;;;;11.83;5.60;;;12.20;99.90;;;;;;5306722;26;20054;-63
2024/04/14 05:46:54;;;;;;;11.73;6.35;;;12.20;99.90;;;;;;5318682;26;20014;-62
2024/04/14 05:49:20;;;;;;;10.27;6.20;;;12.20;99.90;;;;;;5306753;26;20612;-64
2024/04/14 05:51:49;;;;;;;11.77;6.25;;;12.30;99.90;;;;;;5328027;26;20000;-64
2024/04/14 05:54:14;;;;;;;14.68;6.10;;;12.40;99.90;;;;;;5320918;26;20029;-65
2024/04/14 05:56:40;;;;;;;14.33;5.27;;;12.60;99.90;;;;;;5326316;26;20020;-64
2024/04/14 05:59:06;;;;;;;13.87;6.23;;;13.70;99.90;;;;;;5324915;26;20011;-65
2024/04/14 06:01:32;;;;;;;10.15;5.90;;;14.80;99.90;;;;;;5317448;26;20083;-64
2024/04/14 06:03:57;;;;;;;13.93;5.53;;;15.60;99.90;;;;;;5319067;26;19993;-65
2024/04/14 06:06:23;;;;;;;12.07;6.33;;;15.70;99.80;;;;;;5381243;26;20008;-65
2024/04/14 06:08:49;;;;;;;10.90;5.27;;;15.00;99.90;;;;;;5344753;26;19997;-65
2024/04/14 06:11:14;;;;;;;14.87;6.27;;;14.80;99.90;;;;;;5351205;26;20007;-64
2024/04/14 06:13:40;;;;;;;12.20;5.17;;;14.50;99.90;;;;;;5353066;26;20001;-65
2024/04/14 06:16:06;;;;;;;14.70;5.03;;;14.40;99.90;;;;;;5351864;26;20065;-66
2024/04/14 06:18:31;;;;;;;15.13;5.23;;;14.50;99.90;;;;;;5348577;26;20000;-65
2024/04/14 06:20:57;;;;;;;15.83;5.03;;;14.80;99.90;;;;;;5352156;26;20466;-64
2024/04/14 06:23:23;;;;;;;16.37;6.10;;;15.00;99.90;;;;;;5355025;26;20018;-64
2024/04/14 06:25:48;;;;;;;11.23;4.67;;;15.30;99.90;;;;;;5318320;26;20079;-65
2024/04/14 06:28:16;;;;;;;11.03;5.17;;;15.90;99.90;;;;;;5327086;26;20093;-65
2024/04/14 06:30:42;;;;;;;15.38;6.35;;;17.80;94.60;;;;;;5323300;26;19997;-65
2024/04/14 06:33:07;;;;;;;19.05;6.03;;;18.60;91.40;;;;;;5353224;26;20011;-65
2024/04/14 06:35:35;;;;;;;12.97;6.07;;;17.90;91.70;;;;;;5332325;26;20013;-65
2024/04/14 06:38:01;;;;;;;16.65;5.95;;;17.60;92.30;;;;;;5335953;26;20871;-64
2024/04/14 06:40:26;;;;;;;14.23;5.07;;;16.90;93.80;;;;;;5350177;26;20089;-64
2024/04/14 06:42:52;;;;;;;9.60;4.87;;;17.50;93.40;;;;;;5328938;26;20013;-65
2024/04/14 06:45:18;;;;;;;11.77;5.27;;;17.20;93.60;;;;;;5322668;26;20001;-66
2024/04/14 06:47:43;;;;;;;12.37;5.00;;;16.70;95.30;;;;;;5322387;26;20004;-65
2024/04/14 06:50:10;;;;;;;17.00;6.00;;;16.60;97.10;;;;;;5317696;26;20074;-65
2024/04/14 06:52:36;;;;;;;12.55;4.80;;;16.60;97.10;;;;;;5324171;26;20100;-65
2024/04/14 06:55:02;;;;;;;11.20;5.18;;;16.50;97.20;;;;;;5314295;26;20431;-66
2024/04/14 06:57:27;;;;;;;11.52;4.80;;;16.40;99.20;;;;;;5321597;26;20458;-65
2024/04/14 06:59:53;;;;;;;10.50;4.50;;;16.20;98.40;;;;;;5325139;26;20005;-66
2024/04/14 07:02:18;;;;;;;12.67;6.13;;;16.30;99.90;;;;;;5317163;26;20326;-66
2024/04/14 07:04:44;;;;;;;15.27;5.87;;;16.80;98.10;;;;;;5320280;26;20100;-66
2024/04/14 07:07:11;;;;;;;16.83;4.90;;;17.00;97.20;;;;;;5340749;26;20098;-65
2024/04/14 07:09:36;;;;;;;10.95;5.55;;;17.70;98.30;;;;;;5322096;26;20403;-66
2024/04/14 07:12:02;;;;;;;11.97;4.47;;;18.30;94.80;;;;;;5322022;26;20011;-66
2024/04/14 07:14:28;;;;;;;7.85;4.32;;;18.60;93.80;;;;;;5385851;26;20001;-66
2024/04/14 07:16:54;;;;;;;11.53;4.80;;;19.60;92.20;;;;;;5313290;26;20012;-66
2024/04/14 07:19:20;;;;;;;11.95;4.07;;;21.40;85.70;;;;;;5315908;26;20002;-66
2024/04/14 07:21:46;;;;;;;8.32;5.05;;;22.30;80.80;;;;;;5325031;26;20001;-66
2024/04/14 07:24:12;;;;;;;19.00;5.18;;;22.50;79.80;;;;;;5303107;26;20009;-66
2024/04/14 07:26:38;;;;;;;14.13;4.40;;;22.80;77.00;;;;;;5315861;26;20000;-66
2024/04/14 07:29:04;;;;;;;12.40;5.30;;;20.20;85.20;;;;;;5323741;26;20011;-66
2024/04/14 07:31:30;;;;;;;;;;;18.80;90.10;;;;;;5322879;26;20716;-66
2024/04/14 07:34:03;;;;;;;11.43;3.97;;;18.30;92.70;;;;;;5317607;26;19926;-66
2024/04/14 07:36:29;;;;;;;10.98;4.70;;;18.20;94.10;;;;;;5309214;26;20011;-66
2024/04/14 07:38:54;;;;;;;8.20;4.47;;;18.30;94.60;;;;;;5330400;26;20001;-65
2024/04/14 07:41:20;;;;;;;11.20;5.40;;;18.40;93.60;;;;;;5334766;26;20479;-66
2024/04/14 07:43:46;;;;;;;9.50;4.53;;;18.40;94.30;;;;;;5372816;26;20005;-66
2024/04/14 07:46:12;;;;;;;17.00;4.75;;;18.80;94.90;;;;;;5321788;26;20276;-66
2024/04/14 07:48:38;;;;;;;10.23;4.95;;;19.00;94.70;;;;;;5325033;26;20005;-63
2024/04/14 07:51:04;;;;;;;7.10;4.25;;;19.10;94.30;;;;;;5321645;26;20447;-63
2024/04/14 07:53:30;;;;;;;15.23;4.90;;;19.90;92.50;;;;;;5322216;26;20009;-64
2024/04/14 07:55:56;;;;;;;10.63;4.30;;;20.10;92.10;;;;;;5318389;26;20447;-65
2024/04/14 07:58:22;;;;;;;12.70;4.63;;;20.90;90.80;;;;;;5338899;26;20004;-65
2024/04/14 08:00:47;;;;;;;23.17;4.80;;;23.10;85.30;;;;;;5323982;26;20002;-65
2024/04/14 08:03:13;;;;;;;13.40;5.10;;;25.00;76.60;;;;;;5322461;26;20363;-64
2024/04/14 08:05:39;;;;;;;9.38;4.78;;;27.30;71.50;;;;;;5325948;26;20746;-64
2024/04/14 08:08:06;;;;;;;9.05;4.15;;;27.90;66.50;;;;;;5316678;26;20001;-65
2024/04/14 08:10:31;;;;;;;10.23;3.92;;;28.00;67.50;;;;;;5317322;26;20078;-64
2024/04/14 08:12:57;;;;;;;9.68;3.67;;;28.60;65.90;;;;;;5312227;26;20444;-64
2024/04/14 08:15:23;;;;;;;10.02;4.15;;;29.60;64.50;;;;;;5312353;26;19996;-64
2024/04/14 08:17:48;;;;;;;8.18;3.75;;;29.20;63.60;;;;;;5333821;26;20017;-66
2024/04/14 08:20:14;;;;;;;12.90;4.07;;;28.10;65.10;;;;;;5319591;26;20009;-66
2024/04/14 08:22:40;;;;;;;12.82;4.35;;;28.20;65.20;;;;;;5319402;26;20029;-66
2024/04/14 08:25:06;;;;;;;11.48;4.03;;;29.80;63.20;;;;;;5309405;26;20009;-66
2024/04/14 08:27:31;;;;;;;6.88;3.83;;;29.10;63.40;;;;;;5335607;26;19997;-65
2024/04/14 08:29:57;;;;;;;12.70;3.97;;;28.90;65.70;;;;;;5318872;26;20458;-65
2024/04/14 08:32:22;;;;;;;9.43;3.22;;;31.30;63.60;;;;;;5319729;26;19998;-66
2024/04/14 08:34:48;;;;;;;6.45;3.63;;;29.70;62.10;;;;;;5324511;26;20009;-66
2024/04/14 08:37:13;;;;;;;12.40;4.60;;;30.30;62.30;;;;;;5350261;26;20020;-66
2024/04/14 08:39:39;;;;;;;8.73;3.60;;;32.50;59.00;;;;;;5326669;26;20007;-66
2024/04/14 08:42:09;;;;;;;7.15;3.45;;;32.90;58.20;;;;;;5318141;26;21195;-66
2024/04/14 08:44:36;;;;;;;8.60;4.28;;;30.90;60.20;;;;;;5317664;26;20015;-67
2024/04/14 08:47:04;;;;;;;9.73;4.30;;;30.90;61.00;;;;;;5375550;26;20006;-66
2024/04/14 08:49:30;;;;;;;8.93;4.10;;;30.80;62.30;;;;;;5316987;26;20001;-66
2024/04/14 08:51:57;;;;;;;11.05;3.67;;;32.20;59.80;;;;;;5317036;26;20000;-66
2024/04/14 08:54:23;;;;;;;12.57;4.32;;;32.70;58.90;;;;;;5317128;26;20005;-67
2024/04/14 08:56:55;;;;;;;8.35;3.95;;;31.80;60.60;;;;;;5331756;26;19993;-69
2024/04/14 08:59:22;;;;;;;10.27;4.13;;;33.80;58.90;;;;;;5312375;26;20016;-67
2024/04/14 09:01:49;;;;;;;6.32;3.55;;;34.90;54.80;;;;;;5329762;26;20346;-68
2024/04/14 09:04:15;;;;;;;8.25;3.33;;;33.40;56.30;;;;;;5323902;26;20012;-67
2024/04/14 09:06:42;;;;;;;11.05;3.72;;;32.60;57.50;;;;;;5327685;26;20018;-66
2024/04/14 09:09:08;;;;;;;11.02;3.83;;;33.30;57.40;;;;;;5322825;26;20356;-67
2024/04/14 09:11:34;;;;;;;;;;;33.30;57.60;;;;;;5333654;26;19998;-66
2024/04/14 09:14:00;;;;;;;10.07;4.47;;;34.40;56.00;;;;;;5334930;26;19953;-66
2024/04/14 09:16:26;;;;;;;7.97;4.13;;;35.10;56.10;;;;;;5340194;26;20043;-68
2024/04/14 09:18:52;;;;;;;11.15;3.08;;;35.70;54.80;;;;;;5316761;26;20006;-67
2024/04/14 09:21:18;;;;;;;8.43;3.60;;;35.50;54.40;;;;;;5331113;26;20343;-68
2024/04/14 09:23:44;;;;;;;10.50;3.30;;;34.50;56.10;;;;;;5333482;26;20097;-67
2024/04/14 09:26:10;;;;;;;11.25;3.90;;;33.30;57.50;;;;;;5321942;26;20567;-67
2024/04/14 09:28:36;;;;;;;8.18;3.88;;;34.20;56.30;;;;;;5317894;26;20027;-68
2024/04/14 09:31:01;;;;;;;9.55;3.83;;;34.60;56.20;;;;;;5326586;26;20401;-67
2024/04/14 09:33:27;;;;;;;14.57;3.80;;;34.00;56.80;;;;;;5323478;26;20012;-66
2024/04/14 09:35:53;;;;;;;7.22;3.20;;;34.80;56.30;;;;;;5305634;26;20332;-67
2024/04/14 09:38:22;;;;;;;11.73;4.18;;;35.50;55.10;;;;;;5322504;26;20009;-67
2024/04/14 09:40:49;;;;;;;9.35;3.00;;;35.40;55.40;;;;;;5335380;26;20001;-68
2024/04/14 09:43:18;;;;;;;9.63;3.50;;;34.90;55.70;;;;;;5329688;26;20004;-67
2024/04/14 09:45:45;;;;;;;10.30;3.90;;;35.30;55.60;;;;;;5316983;26;20362;-67
2024/04/14 09:48:13;;;;;;;7.40;3.20;;;34.80;53.90;;;;;;5326565;26;20604;-67
2024/04/14 09:50:42;;;;;;;13.18;3.80;;;33.50;54.60;;;;;;5310263;26;20016;-67
2024/04/14 09:53:08;;;;;;;13.35;3.58;;;35.10;55.50;;;;;;5321369;26;20038;-66
2024/04/14 09:55:34;;;;;;;10.57;5.15;;;35.60;54.80;;;;;;5329533;26;20002;-68
2024/04/14 09:58:00;;;;;;;12.65;4.30;;;35.30;55.00;;;;;;5322849;26;20074;-67
2024/04/14 10:00:28;;;;;;;13.88;3.90;;;35.10;55.50;;;;;;5321347;26;20028;-67
2024/04/14 10:03:01;;;;;;;9.73;3.10;;;35.10;55.60;;;;;;5320012;26;19997;-66
2024/04/14 10:05:28;;;;;;;12.00;3.50;;;35.10;55.30;;;;;;5314944;26;20009;-67
2024/04/14 10:07:54;;;;;;;11.43;4.20;;;34.80;56.00;;;;;;5322523;26;20000;-67
2024/04/14 10:10:22;;;;;;;16.77;3.70;;;34.80;55.80;;;;;;5341594;26;20024;-67
2024/04/14 10:12:47;;;;;;;5.65;3.30;;;34.50;56.10;;;;;;5332731;26;20459;-67
2024/04/14 10:15:14;;;;;;;8.63;3.40;;;34.70;55.80;;;;;;5339089;26;20019;-67
2024/04/14 10:17:40;;;;;;;7.22;3.70;;;34.60;55.70;;;;;;5364922;26;20451;-67
2024/04/14 10:20:13;;;;;;;9.80;3.90;;;34.10;54.00;;;;;;5338910;26;19993;-68
2024/04/14 10:22:44;;;;;;;13.23;3.70;;;33.80;55.90;;;;;;5339458;26;20001;-67
2024/04/14 10:25:24;;;;;;;16.10;4.65;;;33.70;55.80;;;;;;5336896;26;20131;-67
2024/04/14 10:27:50;;;;;;;8.43;3.50;;;33.40;56.50;;;;;;5337569;26;20000;-67
2024/04/14 10:30:22;;;;;;;13.73;3.58;;;33.30;56.00;;;;;;5334146;26;20060;-67
2024/04/14 10:33:00;;;;;;;8.45;3.50;;;32.70;56.90;;;;;;5336186;26;20041;-67
2024/04/14 10:35:26;;;;;;;12.82;3.40;;;32.70;57.00;;;;;;5334659;26;19997;-67
2024/04/14 10:37:53;;;;;;;11.25;3.70;;;32.40;57.10;;;;;;5338044;26;20036;-67
2024/04/14 10:40:19;;;;;;;9.95;3.80;;;32.40;57.50;;;;;;5337432;26;20000;-68
2024/04/14 10:42:46;;;;;;;5.35;2.72;;;32.10;54.80;;;;;;5338352;26;19997;-67
2024/04/14 10:45:12;;;;;;;15.07;3.10;;;31.70;57.20;;;;;;5338476;26;20020;-67
2024/04/14 10:47:40;;;;;;;8.35;2.47;;;30.70;57.10;;;;;;5336525;26;20454;-67
2024/04/14 10:50:06;;;;;;;11.77;3.63;;;29.80;58.30;;;;;;5335720;26;21086;-67
2024/04/14 10:52:32;;;;;;;7.68;2.95;;;29.20;59.20;;;;;;5335187;26;20133;-67
2024/04/14 10:54:57;;;;;;;11.70;4.13;;;28.60;60.20;;;;;;5336438;26;20685;-67
2024/04/14 10:57:23;;;;;;;9.00;4.18;;;28.30;60.30;;;;;;5328337;26;20001;-67
2024/04/14 10:59:48;;;;;;;53.35;17.88;;;28.10;60.80;;;;;;5331111;26;20011;-67
2024/04/14 11:02:14;;;;;;;;;;;28.00;60.90;;;;;;5337637;26;20016;-66
2024/04/14 11:04:41;;;;;;;8.73;3.05;;;27.90;60.40;;;;;;5336696;26;19938;-67
2024/04/14 11:07:08;;;;;;;12.35;3.10;;;27.90;58.70;;;;;;5334677;26;20016;-67
2024/04/14 11:09:34;;;;;;;6.95;3.15;;;27.80;60.40;;;;;;5336912;26;20009;-66
2024/04/14 11:12:01;;;;;;;10.75;4.65;;;27.60;60.50;;;;;;5336366;26;20357;-67
2024/04/14 11:14:28;;;;;;;12.25;3.67;;;27.40;62.10;;;;;;5336713;26;20001;-66
2024/04/14 11:16:54;;;;;;;9.35;3.53;;;27.20;61.90;;;;;;5336973;26;20013;-67
2024/04/14 11:19:20;;;;;;;14.45;3.22;;;27.20;61.60;;;;;;5324095;26;20005;-66
2024/04/14 11:21:46;;;;;;;10.20;3.13;;;27.10;61.60;;;;;;5336625;26;20001;-67
2024/04/14 11:24:12;;;;;;;14.93;2.63;;;27.20;60.70;;;;;;5319593;26;20020;-67
2024/04/14 11:26:41;;;;;;;7.45;2.88;;;27.20;61.00;;;;;;5334094;26;19997;-67
2024/04/14 11:29:07;;;;;;;8.90;3.05;;;27.30;60.80;;;;;;5335474;26;20426;-66
2024/04/14 11:31:36;;;;;;;;;;;27.10;60.70;;;;;;5337000;26;20470;-66
2024/04/14 11:34:03;;;;;;;16.80;3.50;;;26.90;62.30;;;;;;5336783;26;19933;-66
2024/04/14 11:36:35;;;;;;;11.05;3.45;;;26.90;60.90;;;;;;5335035;26;20028;-66
2024/04/14 11:39:04;;;;;;;10.75;2.60;;;26.80;60.50;;;;;;5336008;26;20439;-67
2024/04/14 11:41:31;;;;;;;18.38;3.83;;;26.80;62.20;;;;;;5338556;26;19997;-67
2024/04/14 11:43:57;;;;;;;16.63;4.00;;;26.70;62.30;;;;;;5336720;26;20001;-65
2024/04/14 11:46:22;;;;;;;8.80;3.22;;;26.70;62.70;;;;;;5336019;26;20024;-66
2024/04/14 11:48:49;;;;;;;6.90;2.70;;;26.60;62.40;;;;;;5335879;26;20000;-66
2024/04/14 11:51:16;;;;;;;17.55;2.95;;;26.70;62.40;;;;;;5334934;26;19997;-66
2024/04/14 11:53:42;;;;;;;13.43;3.28;;;26.50;62.50;;;;;;5329198;26;20009;-66
2024/04/14 11:56:08;;;;;;;9.57;2.90;;;26.50;62.90;;;;;;5335438;26;20005;-66
2024/04/14 11:58:33;;;;;;;9.65;3.30;;;26.60;61.60;;;;;;5335337;26;20032;-68
2024/04/14 12:00:59;;;;;;;10.55;2.97;;;26.50;61.80;;;;;;5335524;26;20004;-67
2024/04/14 12:03:25;;;;;;;10.23;3.35;;;26.30;62.30;;;;;;5333932;26;20005;-67
2024/04/14 12:05:51;;;;;;;11.32;2.83;;;26.40;62.90;;;;;;5334030;26;20788;-66
2024/04/14 12:08:18;;;;;;;10.85;3.42;;;26.30;62.10;;;;;;5333748;26;20005;-66
2024/04/14 12:10:44;;;;;;;14.45;3.20;;;26.20;61.80;;;;;;5335528;26;20009;-66
2024/04/14 12:13:10;;;;;;;12.35;2.92;;;26.50;61.20;;;;;;5335857;26;20098;-66
2024/04/14 12:15:36;;;;;;;8.98;2.60;;;26.50;61.40;;;;;;5335145;26;20005;-67
2024/04/14 12:18:02;;;;;;;6.95;3.28;;;26.30;61.80;;;;;;5335195;26;20892;-66
2024/04/14 12:20:28;;;;;;;12.20;2.95;;;26.40;61.80;;;;;;5334818;26;20001;-67
2024/04/14 12:22:54;;;;;;;12.57;3.00;;;26.40;60.90;;;;;;5333603;26;20082;-67
2024/04/14 12:25:20;;;;;;;;;;;26.50;60.60;;;;;;5337117;26;20454;-67
2024/04/14 12:27:46;;;;;;;9.43;3.33;;;27.00;58.30;;;;;;5335654;26;19926;-67
2024/04/14 12:30:12;;;;;;;6.47;2.70;;;26.90;59.40;;;;;;5335742;26;20439;-67
2024/04/14 12:32:38;;;;;;;7.45;2.97;;;26.70;59.60;;;;;;5335299;26;20001;-67
2024/04/14 12:35:05;;;;;;;11.82;3.25;;;26.50;60.10;;;;;;5334598;26;20339;-67